Time;durP1;ratioP1;P1;durP2;ratioP2;P2;SDS_P1;SDS_P2;PMS_P1;PMS_P2;Temp;Humidity;BMP_temperature;BMP_pressure;BME280_temperature;BME280_humidity;BME280_pressure;Samples;Min_cycle;Max_cycle;Signal;HPM_P1;HPM_P2
2022/06/15 00:00:34;;;;;;;59.97;4.30;;;;;;;;;;5099210;28;20569;-81
2022/06/15 00:03:01;;;;;;;61.50;5.40;;;;;;;;;;5099521;28;20567;-80
2022/06/15 00:05:30;;;;;;;61.00;4.83;;;;;;;;;;5099726;28;20539;-81
2022/06/15 00:07:57;;;;;;;60.90;5.70;;;;;;;;;;5098960;28;20444;-80
2022/06/15 00:10:24;;;;;;;62.40;5.43;;;;;;;;;;5099389;28;20451;-80
2022/06/15 00:12:51;;;;;;;63.00;5.00;;;;;;;;;;5098992;28;20510;-80
2022/06/15 00:15:19;;;;;;;60.97;4.70;;;;;;;;;;5099537;28;20943;-80
2022/06/15 00:17:46;;;;;;;61.03;4.80;;;;;;;;;;5100550;28;20464;-79
2022/06/15 00:20:13;;;;;;;62.17;5.83;;;;;;;;;;5100550;28;20452;-80
2022/06/15 00:22:41;;;;;;;61.70;4.43;;;;;;;;;;5100138;28;20505;-80
2022/06/15 00:25:09;;;;;;;61.13;4.90;;;;;;;;;;5100096;28;20451;-80
2022/06/15 00:27:36;;;;;;;59.97;4.50;;;;;;;;;;5099699;28;20541;-80
2022/06/15 00:30:03;;;;;;;61.97;5.97;;;;;;;;;;5100143;28;20508;-80
2022/06/15 00:32:30;;;;;;;62.10;4.77;;;;;;;;;;5100042;28;20483;-80
2022/06/15 00:34:58;;;;;;;61.70;6.00;;;;;;;;;;5100501;28;21014;-80
2022/06/15 00:37:25;;;;;;;64.07;5.17;;;;;;;;;;5099898;28;20541;-79
2022/06/15 00:39:53;;;;;;;61.27;5.60;;;;;;;;;;5100894;28;20447;-81
2022/06/15 00:42:21;;;;;;;60.77;5.13;;;;;;;;;;5100301;28;20501;-80
2022/06/15 00:44:49;;;;;;;61.77;5.50;;;;;;;;;;5101434;28;20454;-79
2022/06/15 00:47:20;;;;;;;64.00;5.77;;;;;;;;;;5100115;28;20947;-80
2022/06/15 00:49:49;;;;;;;60.77;5.13;;;;;;;;;;5100574;28;20732;-79
2022/06/15 00:52:17;;;;;;;61.47;5.03;;;;;;;;;;5108831;28;20495;-80
2022/06/15 00:54:46;;;;;;;61.60;5.50;;;;;;;;;;5102326;28;21056;-80
2022/06/15 00:57:15;;;;;;;63.60;4.70;;;;;;;;;;5102268;28;20534;-80
2022/06/15 00:59:45;;;;;;;61.57;4.90;;;;;;;;;;5101695;28;20489;-81
2022/06/15 01:02:12;;;;;;;63.07;5.67;;;;;;;;;;5101686;28;20471;-82
2022/06/15 01:04:41;;;;;;;60.90;5.27;;;;;;;;;;5101660;28;20521;-80
2022/06/15 01:07:14;;;;;;;62.00;5.03;;;;;;;;;;5101418;28;20474;-81
2022/06/15 01:09:46;;;;;;;60.80;5.00;;;;;;;;;;5102706;28;20525;-81
2022/06/15 01:12:18;;;;;;;61.27;5.57;;;;;;;;;;5100611;28;20462;-80
2022/06/15 01:14:56;;;;;;;62.77;5.47;;;;;;;;;;5099996;28;20482;-80
2022/06/15 01:17:31;;;;;;;61.07;5.03;;;;;;;;;;5102346;28;20502;-80
2022/06/15 01:20:17;;;;;;;60.93;5.27;;;;;;;;;;5101900;28;20481;-80
2022/06/15 01:22:55;;;;;;;62.17;5.20;;;;;;;;;;5101698;28;20478;-82
2022/06/15 01:25:37;;;;;;;62.27;4.63;;;;;;;;;;5101540;28;20453;-82
2022/06/15 01:28:15;;;;;;;61.37;5.00;;;;;;;;;;5098683;28;20458;-82
2022/06/15 01:30:47;;;;;;;60.53;4.90;;;;;;;;;;5103126;28;20446;-80
2022/06/15 01:33:23;;;;;;;62.20;5.70;;;;;;;;;;5103255;28;20494;-82
2022/06/15 01:35:55;;;;;;;63.63;5.50;;;;;;;;;;5102447;28;20518;-83
2022/06/15 01:38:25;;;;;;;63.23;5.63;;;;;;;;;;5102668;28;20482;-79
2022/06/15 01:40:57;;;;;;;63.43;5.00;;;;;;;;;;5101601;28;20467;-82
2022/06/15 01:43:27;;;;;;;61.13;4.57;;;;;;;;;;5100962;28;20494;-80
2022/06/15 01:45:57;;;;;;;60.70;4.80;;;;;;;;;;5101362;28;20478;-81
2022/06/15 01:48:24;;;;;;;61.40;5.07;;;;;;;;;;5101052;28;20788;-80
2022/06/15 01:50:54;;;;;;;62.03;5.07;;;;;;;;;;5098832;28;20997;-81
2022/06/15 01:53:23;;;;;;;61.27;5.23;;;;;;;;;;5099163;28;20554;-80
2022/06/15 01:55:52;;;;;;;61.00;4.73;;;;;;;;;;5099031;28;20529;-81
2022/06/15 01:58:21;;;;;;;60.63;4.80;;;;;;;;;;5097995;28;20454;-81
2022/06/15 02:00:53;;;;;;;61.10;4.80;;;;;;;;;;5097934;28;20931;-80
2022/06/15 02:03:26;;;;;;;61.27;5.17;;;;;;;;;;5099583;28;20470;-80
2022/06/15 02:05:54;;;;;;;62.57;5.93;;;;;;;;;;5098474;28;20435;-81
2022/06/15 02:08:25;;;;;;;67.60;4.97;;;;;;;;;;5098397;28;20830;-81
2022/06/15 02:10:55;;;;;;;60.80;5.07;;;;;;;;;;5099213;28;20838;-81
2022/06/15 02:13:26;;;;;;;61.97;4.77;;;;;;;;;;5099572;28;20514;-80
2022/06/15 02:15:56;;;;;;;60.83;5.40;;;;;;;;;;5098541;28;20521;-81
2022/06/15 02:18:26;;;;;;;64.30;5.47;;;;;;;;;;5099026;28;20805;-81
2022/06/15 02:20:55;;;;;;;60.90;4.50;;;;;;;;;;5100177;28;20525;-80
2022/06/15 02:23:23;;;;;;;61.87;4.90;;;;;;;;;;5099234;28;20469;-81
2022/06/15 02:25:52;;;;;;;61.10;5.10;;;;;;;;;;5097331;28;20526;-80
2022/06/15 02:28:20;;;;;;;63.50;5.33;;;;;;;;;;5097163;28;20615;-80
2022/06/15 02:30:47;;;;;;;60.97;4.67;;;;;;;;;;5097913;28;20526;-81
2022/06/15 02:33:21;;;;;;;61.70;5.57;;;;;;;;;;5098836;28;20470;-80
2022/06/15 02:35:49;;;;;;;61.57;5.80;;;;;;;;;;5098731;28;20557;-82
2022/06/15 02:38:16;;;;;;;60.90;5.27;;;;;;;;;;5098358;28;20522;-81
2022/06/15 02:40:44;;;;;;;64.30;4.80;;;;;;;;;;5099056;28;20489;-80
2022/06/15 02:43:12;;;;;;;60.70;5.33;;;;;;;;;;5099437;28;20529;-81
2022/06/15 02:45:40;;;;;;;61.17;4.90;;;;;;;;;;5100263;28;20991;-81
2022/06/15 02:48:08;;;;;;;61.23;5.63;;;;;;;;;;5100059;28;20986;-81
2022/06/15 02:50:38;;;;;;;62.30;5.10;;;;;;;;;;5102031;28;20447;-81
2022/06/15 02:53:09;;;;;;;61.90;5.20;;;;;;;;;;5103401;28;20505;-81
2022/06/15 02:55:36;;;;;;;64.40;4.90;;;;;;;;;;5100387;28;20449;-81
2022/06/15 02:58:07;;;;;;;61.40;5.13;;;;;;;;;;5099815;28;20889;-81
2022/06/15 03:00:34;;;;;;;62.63;5.57;;;;;;;;;;5100826;28;20523;-81
2022/06/15 03:03:01;;;;;;;62.87;4.57;;;;;;;;;;5098882;28;20553;-81
2022/06/15 03:05:28;;;;;;;60.60;5.00;;;;;;;;;;5098448;28;20535;-80
2022/06/15 03:07:56;;;;;;;61.70;5.73;;;;;;;;;;5097671;28;20637;-81
2022/06/15 03:10:24;;;;;;;61.87;5.57;;;;;;;;;;5097659;28;20453;-81
2022/06/15 03:12:51;;;;;;;61.23;4.97;;;;;;;;;;5097106;28;20474;-81
2022/06/15 03:15:19;;;;;;;61.70;5.20;;;;;;;;;;5096875;28;20488;-80
2022/06/15 03:17:46;;;;;;;62.00;5.70;;;;;;;;;;5096580;28;20457;-81
2022/06/15 03:20:13;;;;;;;64.67;5.83;;;;;;;;;;5097370;28;20470;-78
2022/06/15 03:22:42;;;;;;;61.20;5.57;;;;;;;;;;5096643;28;20476;-81
2022/06/15 03:25:09;;;;;;;60.40;4.80;;;;;;;;;;5097419;28;20610;-80
2022/06/15 03:27:38;;;;;;;60.77;4.60;;;;;;;;;;5096164;28;20481;-79
2022/06/15 03:30:07;;;;;;;66.77;5.73;;;;;;;;;;5099835;28;20521;-81
2022/06/15 03:32:34;;;;;;;62.97;5.43;;;;;;;;;;5097947;28;21087;-82
2022/06/15 03:35:01;;;;;;;61.67;5.87;;;;;;;;;;5098188;28;20576;-82
2022/06/15 03:37:28;;;;;;;61.63;4.70;;;;;;;;;;5101730;28;20464;-81
2022/06/15 03:39:56;;;;;;;60.97;4.77;;;;;;;;;;5102133;28;20478;-82
2022/06/15 03:42:24;;;;;;;60.10;4.93;;;;;;;;;;5101847;28;20462;-81
2022/06/15 03:44:54;;;;;;;61.70;5.70;;;;;;;;;;5102148;28;20446;-82
2022/06/15 03:47:21;;;;;;;60.50;5.00;;;;;;;;;;5103006;28;20446;-81
2022/06/15 03:49:49;;;;;;;61.47;5.50;;;;;;;;;;5102590;28;20454;-82
2022/06/15 03:52:16;;;;;;;61.40;5.40;;;;;;;;;;5102289;28;20467;-82
2022/06/15 03:54:43;;;;;;;61.90;5.33;;;;;;;;;;5099698;28;20550;-80
2022/06/15 03:57:11;;;;;;;60.90;5.30;;;;;;;;;;5099503;28;20497;-81
2022/06/15 03:59:39;;;;;;;61.80;5.60;;;;;;;;;;5099967;28;20536;-81
2022/06/15 04:02:07;;;;;;;61.17;5.47;;;;;;;;;;5100369;28;20505;-82
2022/06/15 04:04:35;;;;;;;61.80;5.33;;;;;;;;;;5099650;28;20507;-81
2022/06/15 04:07:02;;;;;;;61.70;5.40;;;;;;;;;;5100194;28;20537;-80
2022/06/15 04:09:28;;;;;;;61.17;5.57;;;;;;;;;;5100100;28;20507;-80
2022/06/15 04:12:08;;;;;;;62.20;5.60;;;;;;;;;;5099853;28;20496;-79
2022/06/15 04:14:35;;;;;;;62.50;6.00;;;;;;;;;;5099750;28;20490;-81
2022/06/15 04:17:02;;;;;;;61.77;6.50;;;;;;;;;;5099907;28;20556;-80
2022/06/15 04:19:32;;;;;;;61.60;5.30;;;;;;;;;;5099918;28;20538;-81
2022/06/15 04:22:00;;;;;;;60.67;5.40;;;;;;;;;;5107708;28;20509;-84
2022/06/15 04:24:28;;;;;;;62.23;5.90;;;;;;;;;;5104488;28;21037;-81
2022/06/15 04:26:55;;;;;;;61.67;5.63;;;;;;;;;;5100390;28;20439;-81
2022/06/15 04:29:23;;;;;;;60.67;4.70;;;;;;;;;;5099630;28;20459;-82
2022/06/15 04:31:50;;;;;;;62.80;5.37;;;;;;;;;;5100012;28;20990;-80
2022/06/15 04:34:18;;;;;;;64.80;6.03;;;;;;;;;;5100012;28;20581;-81
2022/06/15 04:36:46;;;;;;;65.10;5.30;;;;;;;;;;5100308;28;20958;-80
2022/06/15 04:39:14;;;;;;;61.30;4.87;;;;;;;;;;5099697;28;20533;-81
2022/06/15 04:41:42;;;;;;;61.17;5.13;;;;;;;;;;5099018;28;20537;-82
2022/06/15 04:44:10;;;;;;;63.00;5.60;;;;;;;;;;5099304;28;20454;-79
2022/06/15 04:46:37;;;;;;;60.90;5.43;;;;;;;;;;5098072;28;20544;-82
2022/06/15 04:49:05;;;;;;;63.67;5.67;;;;;;;;;;5098928;28;20951;-81
2022/06/15 04:51:39;;;;;;;64.40;5.40;;;;;;;;;;5098536;28;20458;-80
2022/06/15 04:54:09;;;;;;;71.57;5.97;;;;;;;;;;5098998;28;20560;-80
2022/06/15 04:56:37;;;;;;;68.50;5.87;;;;;;;;;;5098743;28;20534;-80
2022/06/15 04:59:05;;;;;;;65.60;5.33;;;;;;;;;;5098906;28;20811;-81
2022/06/15 05:01:32;;;;;;;62.03;5.97;;;;;;;;;;5098925;28;21006;-81
2022/06/15 05:03:59;;;;;;;61.77;5.00;;;;;;;;;;5098596;28;21025;-81
2022/06/15 05:06:33;;;;;;;62.17;5.83;;;;;;;;;;5098718;28;20529;-81
2022/06/15 05:09:01;;;;;;;60.30;4.87;;;;;;;;;;5099336;28;20457;-80
2022/06/15 05:11:29;;;;;;;61.43;5.67;;;;;;;;;;5098684;28;20538;-80
2022/06/15 05:13:57;;;;;;;61.87;5.70;;;;;;;;;;5098957;28;20518;-81
2022/06/15 05:16:24;;;;;;;61.93;5.40;;;;;;;;;;5098898;28;20522;-81
2022/06/15 05:18:51;;;;;;;64.57;6.00;;;;;;;;;;5099168;28;20473;-80
2022/06/15 05:21:19;;;;;;;61.77;5.13;;;;;;;;;;5098829;28;20538;-80
2022/06/15 05:23:46;;;;;;;62.50;5.43;;;;;;;;;;5099785;28;20480;-80
2022/06/15 05:26:13;;;;;;;61.37;5.10;;;;;;;;;;5099166;28;20934;-80
2022/06/15 05:28:44;;;;;;;66.00;5.40;;;;;;;;;;5098490;28;20521;-80
2022/06/15 05:31:14;;;;;;;60.47;5.23;;;;;;;;;;5098256;28;20465;-80
2022/06/15 05:33:41;;;;;;;62.70;5.07;;;;;;;;;;5098122;28;21025;-80
2022/06/15 05:36:10;;;;;;;61.50;5.37;;;;;;;;;;5098552;28;20757;-80
2022/06/15 05:38:37;;;;;;;60.60;5.23;;;;;;;;;;5097671;28;20534;-80
2022/06/15 05:41:05;;;;;;;60.67;5.53;;;;;;;;;;5098067;28;20522;-79
2022/06/15 05:43:32;;;;;;;60.47;4.87;;;;;;;;;;5098489;28;20877;-80
2022/06/15 05:46:00;;;;;;;60.17;4.47;;;;;;;;;;5098546;28;20443;-80
2022/06/15 05:48:28;;;;;;;61.63;5.07;;;;;;;;;;5097234;28;20451;-79
2022/06/15 05:50:55;;;;;;;61.17;5.10;;;;;;;;;;5098591;28;20538;-81
2022/06/15 05:53:22;;;;;;;62.07;5.13;;;;;;;;;;5098517;28;20554;-80
2022/06/15 05:55:49;;;;;;;63.20;5.60;;;;;;;;;;5098373;28;20491;-80
2022/06/15 05:58:16;;;;;;;61.20;5.03;;;;;;;;;;5097505;28;20523;-79
2022/06/15 06:00:44;;;;;;;60.60;5.20;;;;;;;;;;5097841;28;20487;-80
2022/06/15 06:03:12;;;;;;;61.10;5.20;;;;;;;;;;5097671;28;20872;-82
2022/06/15 06:05:39;;;;;;;62.70;5.33;;;;;;;;;;5105222;28;20553;-80
2022/06/15 06:08:07;;;;;;;60.30;5.20;;;;;;;;;;5098400;28;20515;-79
2022/06/15 06:10:34;;;;;;;60.57;5.27;;;;;;;;;;5098456;28;20507;-80
2022/06/15 06:13:01;;;;;;;64.30;6.13;;;;;;;;;;5096677;28;21027;-80
2022/06/15 06:15:29;;;;;;;60.87;5.50;;;;;;;;;;5097314;28;20499;-79
2022/06/15 06:17:57;;;;;;;61.10;4.70;;;;;;;;;;5098410;28;20444;-79
2022/06/15 06:20:25;;;;;;;61.27;5.30;;;;;;;;;;5097833;28;20482;-81
2022/06/15 06:22:52;;;;;;;60.27;4.87;;;;;;;;;;5097107;28;20482;-80
2022/06/15 06:25:19;;;;;;;60.00;4.50;;;;;;;;;;5097870;28;20516;-80
2022/06/15 06:27:46;;;;;;;60.27;4.27;;;;;;;;;;5097813;28;21016;-80
2022/06/15 06:30:14;;;;;;;63.70;7.03;;;;;;;;;;5096948;28;20524;-79
2022/06/15 06:32:41;;;;;;;60.63;4.90;;;;;;;;;;5097683;28;20544;-80
2022/06/15 06:35:09;;;;;;;60.70;5.00;;;;;;;;;;5098254;28;21031;-81
2022/06/15 06:37:38;;;;;;;60.17;4.47;;;;;;;;;;5097894;28;20520;-79
2022/06/15 06:40:07;;;;;;;64.40;4.27;;;;;;;;;;5098924;28;20438;-80
2022/06/15 06:42:34;;;;;;;61.27;4.73;;;;;;;;;;5098172;28;20540;-79
2022/06/15 06:45:01;;;;;;;60.97;4.33;;;;;;;;;;5099138;28;20559;-80
2022/06/15 06:47:28;;;;;;;60.97;4.10;;;;;;;;;;5098735;28;20523;-80
2022/06/15 06:49:55;;;;;;;60.47;4.20;;;;;;;;;;5099763;28;20481;-80
2022/06/15 06:52:22;;;;;;;61.83;4.13;;;;;;;;;;5098792;28;21072;-80
2022/06/15 06:54:51;;;;;;;60.43;4.33;;;;;;;;;;5098672;28;21001;-80
2022/06/15 06:57:18;;;;;;;60.63;4.00;;;;;;;;;;5098101;28;20437;-80
2022/06/15 06:59:45;;;;;;;60.60;4.20;;;;;;;;;;5099052;28;20446;-81
2022/06/15 07:02:12;;;;;;;59.90;3.93;;;;;;;;;;5097892;28;20489;-80
2022/06/15 07:04:39;;;;;;;60.50;4.20;;;;;;;;;;5097864;28;20974;-79
2022/06/15 07:07:06;;;;;;;60.50;3.93;;;;;;;;;;5098063;28;20489;-80
2022/06/15 07:09:34;;;;;;;60.57;4.40;;;;;;;;;;5098457;28;20538;-80
2022/06/15 07:12:04;;;;;;;60.07;3.80;;;;;;;;;;5101107;28;20459;-81
2022/06/15 07:14:32;;;;;;;60.17;4.10;;;;;;;;;;5101894;28;20541;-81
2022/06/15 07:16:59;;;;;;;60.07;4.20;;;;;;;;;;5101580;28;20568;-80
2022/06/15 07:19:26;;;;;;;59.50;3.93;;;;;;;;;;5100941;28;20454;-80
2022/06/15 07:21:53;;;;;;;60.97;4.37;;;;;;;;;;5100659;28;20496;-80
2022/06/15 07:24:20;;;;;;;61.03;4.17;;;;;;;;;;5101369;28;20523;-81
2022/06/15 07:26:50;;;;;;;62.27;4.00;;;;;;;;;;5103019;28;20866;-81
2022/06/15 07:29:20;;;;;;;59.50;3.67;;;;;;;;;;5102879;28;20881;-81
2022/06/15 07:31:50;;;;;;;61.30;3.50;;;;;;;;;;5103283;28;20467;-83
2022/06/15 07:34:17;;;;;;;59.77;3.40;;;;;;;;;;5102905;28;20515;-80
2022/06/15 07:36:46;;;;;;;61.17;4.00;;;;;;;;;;5102139;28;20570;-81
2022/06/15 07:39:14;;;;;;;59.23;3.40;;;;;;;;;;5103181;28;20553;-81
2022/06/15 07:41:41;;;;;;;61.83;3.90;;;;;;;;;;5104978;28;20470;-85
2022/06/15 07:44:08;;;;;;;66.83;3.90;;;;;;;;;;5108808;28;20455;-81
2022/06/15 07:46:37;;;;;;;60.47;4.17;;;;;;;;;;5100333;28;20518;-81
2022/06/15 07:51:52;;;;;;;59.10;3.73;;;;;;;;;;5101148;28;20520;-80
2022/06/15 07:54:20;;;;;;;60.47;3.77;;;;;;;;;;5100374;28;20489;-81
2022/06/15 07:56:47;;;;;;;60.83;4.13;;;;;;;;;;5100722;28;20486;-80
2022/06/15 07:59:15;;;;;;;59.37;3.83;;;;;;;;;;5101651;28;20453;-81
2022/06/15 08:01:44;;;;;;;60.70;4.10;;;;;;;;;;5102161;28;21028;-82
2022/06/15 08:04:12;;;;;;;59.17;3.40;;;;;;;;;;5101598;28;20450;-81
2022/06/15 08:06:41;;;;;;;59.97;3.47;;;;;;;;;;5104064;28;20529;-81
2022/06/15 08:09:09;;;;;;;59.07;3.30;;;;;;;;;;5103775;28;20458;-81
2022/06/15 08:11:36;;;;;;;59.30;3.47;;;;;;;;;;5103918;28;20450;-81
2022/06/15 08:14:04;;;;;;;63.70;3.90;;;;;;;;;;5104116;28;20489;-81
2022/06/15 08:16:31;;;;;;;60.37;3.97;;;;;;;;;;5101260;28;20589;-81
2022/06/15 08:19:02;;;;;;;60.30;4.10;;;;;;;;;;5101359;28;20454;-80
2022/06/15 08:21:30;;;;;;;59.23;3.50;;;;;;;;;;5094955;28;20796;-79
2022/06/15 08:23:59;;;;;;;59.70;3.60;;;;;;;;;;5094678;28;20465;-78
2022/06/15 08:26:27;;;;;;;59.30;3.30;;;;;;;;;;5094724;28;20529;-79
2022/06/15 08:28:56;;;;;;;59.30;3.60;;;;;;;;;;5094727;28;20453;-79
2022/06/15 08:31:23;;;;;;;58.87;3.33;;;;;;;;;;5094778;28;20453;-79
2022/06/15 08:33:50;;;;;;;59.27;3.57;;;;;;;;;;5094750;28;20574;-79
2022/06/15 08:36:19;;;;;;;59.67;3.30;;;;;;;;;;5095034;28;20482;-78
2022/06/15 08:38:46;;;;;;;60.27;3.40;;;;;;;;;;5094162;28;20466;-79
2022/06/15 08:41:22;;;;;;;60.70;3.60;;;;;;;;;;5094426;28;20454;-79
2022/06/15 08:43:57;;;;;;;57.97;3.00;;;;;;;;;;5094531;28;20481;-79
2022/06/15 08:46:28;;;;;;;60.30;4.03;;;;;;;;;;5094646;28;20538;-78
2022/06/15 08:49:00;;;;;;;59.60;3.70;;;;;;;;;;5094924;28;20530;-80
2022/06/15 08:51:35;;;;;;;59.67;3.77;;;;;;;;;;5097127;28;20814;-80
2022/06/15 08:54:04;;;;;;;60.03;3.90;;;;;;;;;;5097831;28;20431;-80
2022/06/15 08:56:32;;;;;;;59.40;3.57;;;;;;;;;;5097413;28;20541;-79
2022/06/15 08:59:03;;;;;;;63.43;4.00;;;;;;;;;;5097955;28;20529;-79
2022/06/15 09:01:32;;;;;;;59.80;3.70;;;;;;;;;;5097487;28;20447;-79
2022/06/15 09:04:04;;;;;;;60.90;3.67;;;;;;;;;;5097029;28;20518;-79
2022/06/15 09:06:39;;;;;;;60.27;3.47;;;;;;;;;;5096507;28;20465;-79
2022/06/15 09:09:13;;;;;;;59.80;3.33;;;;;;;;;;5095974;28;20458;-79
2022/06/15 09:11:46;;;;;;;60.00;4.10;;;;;;;;;;5096304;28;20457;-79
2022/06/15 09:14:21;;;;;;;59.20;3.23;;;;;;;;;;5095960;28;20541;-79
2022/06/15 09:16:53;;;;;;;59.83;3.70;;;;;;;;;;5096261;28;20486;-80
2022/06/15 09:19:22;;;;;;;59.43;3.77;;;;;;;;;;5096148;28;20541;-81
2022/06/15 09:21:52;;;;;;;60.13;3.60;;;;;;;;;;5101199;28;20545;-83
2022/06/15 09:24:22;;;;;;;59.00;3.70;;;;;;;;;;5105551;28;20473;-78
2022/06/15 09:26:51;;;;;;;59.30;3.60;;;;;;;;;;5095871;28;20983;-79
2022/06/15 09:29:20;;;;;;;58.87;3.30;;;;;;;;;;5095188;28;20543;-79
2022/06/15 09:31:50;;;;;;;58.80;3.10;;;;;;;;;;5094460;28;20473;-80
2022/06/15 09:34:20;;;;;;;59.87;3.70;;;;;;;;;;5094779;28;20570;-79
2022/06/15 09:36:48;;;;;;;61.43;3.67;;;;;;;;;;5094842;28;20482;-79
2022/06/15 09:39:18;;;;;;;59.20;3.20;;;;;;;;;;5094943;28;20462;-81
2022/06/15 09:41:48;;;;;;;58.57;3.17;;;;;;;;;;5095233;28;20545;-81
2022/06/15 09:44:19;;;;;;;58.50;3.17;;;;;;;;;;5095640;28;20517;-81
2022/06/15 09:46:50;;;;;;;59.07;3.47;;;;;;;;;;5095189;28;20446;-81
2022/06/15 09:49:38;;;;;;;59.00;3.00;;;;;;;;;;5094044;28;20453;-82
2022/06/15 09:52:09;;;;;;;59.87;3.23;;;;;;;;;;5095319;28;20476;-83
2022/06/15 09:54:44;;;;;;;59.57;3.20;;;;;;;;;;5095956;28;20510;-81
2022/06/15 09:57:12;;;;;;;59.57;3.60;;;;;;;;;;5095193;28;20492;-81
2022/06/15 09:59:40;;;;;;;58.80;3.13;;;;;;;;;;5095575;28;20516;-80
2022/06/15 10:02:08;;;;;;;60.93;3.80;;;;;;;;;;5095184;28;20508;-82
2022/06/15 10:04:37;;;;;;;60.73;3.10;;;;;;;;;;5095109;28;20449;-81
2022/06/15 10:07:06;;;;;;;60.87;3.43;;;;;;;;;;5095470;28;20913;-81
2022/06/15 10:09:35;;;;;;;61.37;3.67;;;;;;;;;;5095187;28;20535;-80
2022/06/15 10:14:49;;;;;;;59.30;3.60;;;;;;;;;;5095157;28;20448;-81
2022/06/15 10:17:21;;;;;;;58.57;3.40;;;;;;;;;;5094492;28;20888;-81
2022/06/15 10:19:49;;;;;;;59.20;3.60;;;;;;;;;;5095410;28;20447;-81
2022/06/15 10:22:22;;;;;;;60.20;3.53;;;;;;;;;;5095730;28;20543;-81
2022/06/15 10:24:50;;;;;;;60.17;3.13;;;;;;;;;;5095038;28;20866;-81
2022/06/15 10:27:29;;;;;;;58.60;2.97;;;;;;;;;;5094914;28;20447;-81
2022/06/15 10:30:04;;;;;;;57.90;2.73;;;;;;;;;;5093963;28;20829;-80
2022/06/15 10:32:32;;;;;;;58.10;3.03;;;;;;;;;;5094492;28;20807;-79
2022/06/15 10:35:13;;;;;;;57.70;2.90;;;;;;;;;;5095357;28;20489;-82
2022/06/15 10:37:42;;;;;;;60.10;3.23;;;;;;;;;;5095048;28;20850;-80
2022/06/15 10:40:19;;;;;;;58.07;3.00;;;;;;;;;;5095530;28;20474;-79
2022/06/15 10:42:51;;;;;;;58.73;3.10;;;;;;;;;;5095816;28;20530;-81
2022/06/15 10:45:22;;;;;;;59.07;3.10;;;;;;;;;;5096661;28;20457;-80
2022/06/15 10:47:53;;;;;;;57.27;2.90;;;;;;;;;;5099431;28;20795;-81
2022/06/15 10:50:23;;;;;;;58.47;3.10;;;;;;;;;;5100141;28;20474;-81
2022/06/15 10:52:54;;;;;;;58.37;3.20;;;;;;;;;;5108988;28;20459;-81
2022/06/15 11:04:04;;;;;;;57.90;3.13;;;;;;;;;;5100092;28;20421;-81
2022/06/15 11:06:37;;;;;;;58.70;3.10;;;;;;;;;;5100415;28;21013;-80
2022/06/15 11:09:04;;;;;;;57.43;2.70;;;;;;;;;;5099278;28;20529;-80
2022/06/15 11:11:31;;;;;;;57.90;3.07;;;;;;;;;;5099729;28;20457;-80
2022/06/15 11:14:06;;;;;;;57.90;3.50;;;;;;;;;;5099168;28;20533;-80
2022/06/15 11:19:21;;;;;;;57.07;2.70;;;;;;;;;;5099145;28;20437;-80
2022/06/15 11:21:50;;;;;;;57.90;2.80;;;;;;;;;;5098938;28;20620;-80
2022/06/15 11:24:30;;;;;;;57.37;2.93;;;;;;;;;;5098286;28;20470;-80
2022/06/15 11:27:01;;;;;;;57.00;2.67;;;;;;;;;;5099319;28;20489;-80
2022/06/15 11:29:37;;;;;;;59.27;3.13;;;;;;;;;;5099008;28;20461;-80
2022/06/15 11:32:07;;;;;;;58.27;3.10;;;;;;;;;;5099837;28;20508;-80
2022/06/15 11:34:37;;;;;;;56.80;2.67;;;;;;;;;;5097780;28;20974;-80
2022/06/15 11:37:06;;;;;;;57.30;2.87;;;;;;;;;;5098460;28;20480;-80
2022/06/15 11:39:35;;;;;;;58.93;3.23;;;;;;;;;;5096590;28;20429;-79
2022/06/15 11:42:02;;;;;;;60.00;3.53;;;;;;;;;;5096825;28;20557;-80
2022/06/15 11:44:31;;;;;;;56.67;2.93;;;;;;;;;;5096686;28;20442;-79
2022/06/15 11:47:07;;;;;;;57.90;3.20;;;;;;;;;;5097074;28;21012;-80
2022/06/15 11:49:39;;;;;;;58.37;2.60;;;;;;;;;;5098032;28;20865;-81
2022/06/15 11:52:15;;;;;;;57.57;3.00;;;;;;;;;;5097259;28;20557;-80
2022/06/15 11:54:48;;;;;;;57.07;2.87;;;;;;;;;;5097331;28;20493;-81
2022/06/15 11:57:25;;;;;;;59.00;3.27;;;;;;;;;;5097647;28;20843;-80
2022/06/15 12:00:04;;;;;;;57.37;2.70;;;;;;;;;;5099957;28;20500;-80
2022/06/15 12:02:37;;;;;;;56.67;2.83;;;;;;;;;;5100630;28;20466;-81
2022/06/15 12:05:19;;;;;;;56.37;2.53;;;;;;;;;;5101110;28;20526;-81
2022/06/15 12:07:50;;;;;;;63.60;3.27;;;;;;;;;;5101448;28;20566;-81
2022/06/15 12:10:23;;;;;;;56.30;2.70;;;;;;;;;;5102399;28;20457;-80
2022/06/15 12:12:53;;;;;;;58.30;2.80;;;;;;;;;;5100832;28;20501;-80
2022/06/15 12:15:27;;;;;;;57.30;3.00;;;;;;;;;;5101410;28;20455;-81
2022/06/15 12:17:59;;;;;;;56.63;3.00;;;;;;;;;;5099861;28;20506;-80
2022/06/15 12:20:37;;;;;;;57.40;2.87;;;;;;;;;;5099976;28;20510;-81
2022/06/15 12:23:08;;;;;;;56.67;2.70;;;;;;;;;;5100699;28;20490;-80
2022/06/15 12:25:38;;;;;;;56.97;3.10;;;;;;;;;;5100320;28;20473;-80
2022/06/15 12:28:10;;;;;;;56.27;2.57;;;;;;;;;;5098841;28;20478;-81
2022/06/15 12:30:40;;;;;;;56.47;2.80;;;;;;;;;;5099551;28;20488;-81
2022/06/15 12:33:13;;;;;;;56.60;2.87;;;;;;;;;;5099654;28;20551;-80
2022/06/15 12:35:43;;;;;;;56.40;3.03;;;;;;;;;;5100247;28;20442;-81
2022/06/15 12:39:48;;;;;;;57.97;2.63;;;;;;;;;;5102414;27;20609;-85
2022/06/15 12:42:17;;;;;;;57.20;2.67;;;;;;;;;;5069725;28;20432;-84
2022/06/15 12:44:53;;;;;;;57.43;2.67;;;;;;;;;;5069499;28;20471;-82
2022/06/15 12:47:22;;;;;;;57.37;2.90;;;;;;;;;;5069390;28;20833;-83
2022/06/15 12:49:55;;;;;;;56.27;2.43;;;;;;;;;;5069261;28;20459;-84
2022/06/15 12:52:26;;;;;;;56.33;2.60;;;;;;;;;;5069387;28;20485;-85
2022/06/15 12:55:00;;;;;;;55.80;2.93;;;;;;;;;;5069179;28;20446;-84
2022/06/15 12:57:34;;;;;;;60.70;2.67;;;;;;;;;;5069131;28;20501;-85
2022/06/15 13:00:05;;;;;;;57.30;2.70;;;;;;;;;;5069135;28;20505;-84
2022/06/15 13:02:36;;;;;;;56.97;2.53;;;;;;;;;;5069270;28;20432;-84
2022/06/15 13:05:11;;;;;;;56.83;2.40;;;;;;;;;;5069108;28;20428;-84
2022/06/15 13:07:39;;;;;;;57.27;2.63;;;;;;;;;;5068926;28;20431;-85
2022/06/15 13:10:22;;;;;;;57.23;2.80;;;;;;;;;;5069105;28;20479;-84
2022/06/15 13:12:54;;;;;;;56.70;2.87;;;;;;;;;;5068359;28;20950;-84
2022/06/15 13:15:27;;;;;;;61.23;2.70;;;;;;;;;;5069174;28;20462;-84
2022/06/15 13:18:07;;;;;;;56.80;2.80;;;;;;;;;;5068574;28;20475;-84
2022/06/15 13:20:35;;;;;;;57.30;2.60;;;;;;;;;;5068700;28;20463;-85
2022/06/15 13:23:02;;;;;;;56.33;2.70;;;;;;;;;;5068639;28;20932;-83
2022/06/15 13:25:29;;;;;;;58.43;2.97;;;;;;;;;;5069016;28;20438;-83
2022/06/15 13:28:15;;;;;;;57.07;2.60;;;;;;;;;;5068379;28;20931;-85
2022/06/15 13:30:54;;;;;;;58.33;3.00;;;;;;;;;;5068220;28;20466;-84
2022/06/15 13:33:22;;;;;;;57.07;2.60;;;;;;;;;;5069109;28;20432;-84
2022/06/15 13:36:09;;;;;;;57.20;2.90;;;;;;;;;;5068765;28;20432;-84
2022/06/15 13:38:37;;;;;;;57.00;2.70;;;;;;;;;;5067663;28;20483;-85
2022/06/15 13:41:16;;;;;;;57.00;2.60;;;;;;;;;;5068301;28;20981;-85
2022/06/15 13:44:02;;;;;;;57.27;2.53;;;;;;;;;;5068283;28;20432;-85
2022/06/15 13:46:32;;;;;;;58.37;3.70;;;;;;;;;;5068218;28;20996;-85
2022/06/15 13:49:00;;;;;;;58.67;3.33;;;;;;;;;;5066698;28;20436;-85
2022/06/15 13:51:30;;;;;;;57.10;3.00;;;;;;;;;;5054667;28;20908;-85
2022/06/15 13:54:03;;;;;;;57.40;3.10;;;;;;;;;;5055113;28;20436;-83
2022/06/15 13:56:32;;;;;;;57.30;3.00;;;;;;;;;;5054995;28;20977;-84
2022/06/15 13:59:15;;;;;;;57.10;2.70;;;;;;;;;;5054420;28;20526;-85
2022/06/15 14:01:52;;;;;;;57.17;3.07;;;;;;;;;;5054654;28;20464;-84
2022/06/15 14:04:24;;;;;;;58.70;3.50;;;;;;;;;;5054624;28;20481;-85
2022/06/15 14:07:06;;;;;;;57.07;2.77;;;;;;;;;;5054686;28;20930;-85
2022/06/15 14:09:39;;;;;;;58.17;3.00;;;;;;;;;;5053023;28;20509;-86
2022/06/15 14:12:24;;;;;;;57.50;2.97;;;;;;;;;;5054669;28;20452;-83
2022/06/15 14:15:18;;;;;;;57.40;3.00;;;;;;;;;;5051200;28;20996;-85
2022/06/15 14:17:54;;;;;;;57.40;3.07;;;;;;;;;;5041454;28;20452;-84
2022/06/15 14:20:26;;;;;;;58.37;2.80;;;;;;;;;;5054471;28;20535;-85
2022/06/15 14:22:55;;;;;;;57.23;2.80;;;;;;;;;;5054786;28;20855;-86
2022/06/15 14:25:22;;;;;;;57.67;3.20;;;;;;;;;;5054418;28;20849;-84
2022/06/15 14:27:53;;;;;;;57.47;3.00;;;;;;;;;;5054659;28;20441;-85
2022/06/15 14:30:25;;;;;;;57.60;3.03;;;;;;;;;;5053907;28;20518;-85
2022/06/15 14:33:02;;;;;;;58.10;2.80;;;;;;;;;;5054262;28;20511;-83
2022/06/15 14:35:30;;;;;;;58.57;3.27;;;;;;;;;;5054722;28;20468;-86
2022/06/15 14:38:00;;;;;;;58.47;3.30;;;;;;;;;;5054225;28;20452;-86
2022/06/15 14:40:32;;;;;;;57.40;3.23;;;;;;;;;;5054257;28;20460;-84
2022/06/15 14:43:00;;;;;;;60.27;3.23;;;;;;;;;;5054183;28;20973;-85
2022/06/15 14:45:32;;;;;;;57.43;3.07;;;;;;;;;;5053853;28;20437;-84
2022/06/15 14:48:03;;;;;;;57.00;2.63;;;;;;;;;;5054015;28;20433;-84
2022/06/15 14:50:31;;;;;;;61.30;3.50;;;;;;;;;;5054079;28;20543;-84
2022/06/15 14:53:06;;;;;;;57.90;3.23;;;;;;;;;;5053919;28;20457;-83
2022/06/15 14:55:35;;;;;;;57.27;2.90;;;;;;;;;;5054052;28;20432;-84
2022/06/15 14:58:10;;;;;;;58.57;3.27;;;;;;;;;;5053375;28;20472;-83
2022/06/15 15:00:37;;;;;;;57.50;3.23;;;;;;;;;;5053550;28;20522;-84
2022/06/15 15:03:06;;;;;;;57.37;2.90;;;;;;;;;;5053096;28;20859;-84
2022/06/15 15:05:34;;;;;;;57.37;3.07;;;;;;;;;;5053715;28;20804;-85